DW3845 Weather Reports


Display with metric or nautical units.
time (UTC)temp
F
wind
direction
speed
MPH
gust
MPH
rain 1hr
in
rain 24hr
in
rain mn
in
humidity
%
barometer
mb
20240616151547 45 173 2.0 5.0 0.00 0.18 0.00 77 1003.5
20240616150045 43 298 0.0 3.0 0.00 0.18 0.00 79 1003.5
20240616144541 43 224 0.0 3.0 0.00 0.18 0.00 81 1003.6
20240616143040 42 226 1.0 5.0 0.00 0.18 0.00 82 1003.6
20240616141537 41 250 0.0 3.0 0.00 0.18 0.00 82 1003.6
20240616140039 40 231 0.0 1.0 0.00 0.18 0.00 82 1003.6
20240616134529 39 267 0.0 0.0 0.00 0.18 0.00 79 1003.7
20240616133025 38 23 0.0 0.0 0.00 0.18 0.00 70 1003.7
20240616131521 37 13 0.0 1.0 0.00 0.18 0.00 57 1003.6
20240616130018 34 309 0.0 1.0 0.00 0.18 0.00 54 1003.8
20240616124519 33 41 0.0 2.0 0.00 0.18 0.00 57 1003.6
20240616123014 32 26 0.0 0.0 0.00 0.18 0.00 58 1003.5
20240616121513 33 44 0.0 2.0 0.00 0.18 0.00 58 1003.5
20240616120011 33 49 2.0 3.0 0.00 0.18 0.00 58 1003.4
20240616114511 33 46 2.0 3.0 0.00 0.18 0.00 58 1003.3
20240616113008 33 43 0.0 0.0 0.00 0.18 0.00 58 1003.3
20240616111506 33 51 0.0 2.0 0.00 0.18 0.00 57 1003.2
20240616110008 34 40 0.0 0.0 0.00 0.18 0.00 56 1003.0
20240616104501 33 46 0.0 1.0 0.00 0.18 0.00 57 1003.0
20240616103103 33 38 0.0 2.0 0.00 0.18 0.00 58 1002.9
20240616101557 33 48 1.0 3.0 0.00 0.18 0.00 59 1002.6
20240616100055 33 42 1.0 2.0 0.00 0.18 0.00 58 1002.5
20240616094619 34 46 2.0 4.0 0.00 0.18 0.00 58 1002.6
20240616093055 34 41 1.0 3.0 0.00 0.18 0.00 59 1002.5
20240616091556 34 43 0.0 2.0 0.00 0.18 0.00 58 1002.4
20240616090045 34 49 1.0 3.0 0.00 0.18 0.00 58 1002.2
20240616084543 34 20 0.0 3.0 0.00 0.18 0.00 60 1002.1
20240616083040 35 44 2.0 3.0 0.00 0.18 0.00 60 1002.2
20240616081539 35 42 1.0 3.0 0.00 0.18 0.00 62 1002.3
20240616080038 36 41 1.0 3.0 0.00 0.18 0.00 60 1002.3
20240616074535 36 46 2.0 3.0 0.00 0.18 0.00 61 1002.3
20240616073031 36 40 0.0 1.0 0.00 0.18 0.00 61 1002.4
20240616071527 36 53 2.0 3.0 0.00 0.18 0.00 63 1002.6
20240616070024 36 46 0.0 3.0 0.00 0.18 0.00 66 1002.4
20240616064533 37 44 2.0 3.0 0.00 0.18 0.18 68 1002.2
20240616063017 37 44 0.0 0.0 0.00 0.18 0.18 72 1002.1
20240616061515 39 36 0.0 1.0 0.00 0.18 0.18 71 1002.2
20240616060014 40 44 0.0 3.0 0.00 0.18 0.18 72 1002.2
20240616054512 40 40 2.0 4.0 0.00 0.18 0.18 71 1002.1
20240616053014 40 326 0.0 1.0 0.00 0.18 0.18 73 1002.0
20240616051511 39 51 0.0 0.0 0.00 0.18 0.18 73 1002.0
20240616050010 39 44 0.0 0.0 0.00 0.18 0.18 77 1001.7
20240616044507 40 49 0.0 0.0 0.00 0.18 0.18 78 1001.7
20240616043006 41 46 0.0 0.0 0.00 0.18 0.18 81 1001.6
20240616041511 42 350 0.0 0.0 0.00 0.18 0.18 81 1001.4
20240616040003 43 294 0.0 0.0 0.00 0.18 0.18 81 1001.3
20240616034601 44 293 0.0 0.0 0.00 0.18 0.18 80 1001.1
20240616033059 45 141 0.0 3.0 0.00 0.18 0.18 80 1000.9
20240616031604 45 38 0.0 0.0 0.00 0.18 0.18 79 1000.7
20240616030057 47 291 0.0 0.0 0.00 0.18 0.18 77 1000.6
20240616024555 48 257 0.0 3.0 0.00 0.18 0.18 75 1000.5
20240616023059 49 262 0.0 5.0 0.00 0.18 0.18 74 1000.4
20240616021554 50 143 0.0 7.0 0.00 0.18 0.18 71 1000.3
20240616020053 50 352 1.0 9.0 0.00 0.18 0.18 70 1000.3
20240616014623 49 15 3.0 8.0 0.00 0.18 0.18 74 1000.2
20240616013050 49 162 2.0 8.0 0.00 0.18 0.18 76 1000.0
20240616011552 47 255 2.0 8.0 0.00 0.18 0.18 77 1000.1
20240616010051 48 159 0.0 7.0 0.00 0.18 0.18 75 1000.2
20240616004553 49 271 4.0 17.0 0.00 0.18 0.18 71 1000.3
20240616003050 50 162 1.0 6.0 0.00 0.18 0.18 65 1000.2
20240616001550 51 192 2.0 8.0 0.00 0.18 0.18 61 1000.4
20240616000106 53 192 3.0 9.0 0.00 0.18 0.18 59 1000.1
20240615234544 54 263 0.0 4.0 0.01 0.18 0.18 58 999.6
20240615233042 52 46 2.0 10.0 0.01 0.18 0.18 62 999.4
20240615231541 52 42 0.0 7.0 0.01 0.18 0.18 71 999.5
20240615230046 53 101 0.0 4.0 0.01 0.18 0.18 67 999.1
20240615224544 54 288 2.0 7.0 0.00 0.17 0.17 64 999.0
20240615223039 56 68 2.0 5.0 0.00 0.17 0.17 64 998.6
20240615221544 57 249 0.0 4.0 0.00 0.17 0.17 64 998.3
20240615220033 54 287 0.0 3.0 0.00 0.17 0.17 67 998.2
20240615214546 54 149 0.0 0.0 0.02 0.17 0.17 72 998.1
20240615213028 52 91 0.0 3.0 0.03 0.17 0.17 76 998.2
20240615211530 50 255 0.0 6.0 0.04 0.17 0.17 79 998.3
20240615210022 46 127 0.0 4.0 0.05 0.17 0.17 82 998.3
20240615204522 47 246 0.0 0.0 0.02 0.14 0.14 76 999.2
20240615203018 46 38 0.0 0.0 0.03 0.14 0.14 56 997.8
20240615201518 45 345 0.0 0.0 0.04 0.13 0.13 56 997.8
20240615200014 43 46 0.0 1.0 0.09 0.12 0.12 65 997.6
20240615194519 43 39 0.0 0.0 0.09 0.12 0.12 74 997.6
20240615193012 44 56 0.0 3.0 0.08 0.11 0.11 81 997.7
20240615191511 48 163 2.0 9.0 0.05 0.08 0.08 77 998.1
20240615190022 49 238 7.0 19.0 0.00 0.03 0.03 80 996.9
20240615184517 48 343 3.0 11.0 0.01 0.03 0.03 81 997.0
20240615183007 47 270 0.0 3.0 0.01 0.03 0.03 80 997.4
20240615181507 46 253 1.0 6.0 0.01 0.03 0.03 81 997.4
20240615180007 47 50 1.0 7.0 0.01 0.03 0.03 81 997.4
20240615174507 47 74 0.0 6.0 0.00 0.02 0.02 81 997.5
20240615173013 48 13 1.0 4.0 0.00 0.02 0.02 81 997.4
20240615171508 48 18 0.0 4.0 0.00 0.02 0.02 79 997.1
20240615170005 47 198 0.0 2.0 0.00 0.02 0.02 81 997.3
20240615164505 46 264 0.0 2.0 0.02 0.02 0.02 81 997.1
20240615163003 46 158 0.0 2.0 0.02 0.02 0.02 81 997.4
20240615161503 46 120 0.0 3.0 0.02 0.02 0.02 80 997.4
20240615160107 47 299 0.0 4.0 0.02 0.02 0.02 81 997.2
20240615154602 48 268 1.0 7.0 0.00 0.00 0.00 79 997.0
20240615153059 49 79 2.0 9.0 0.00 0.00 0.00 73 996.6